createdAt,value
2022-10-17T00:01:44.550Z,16.70
2022-10-17T00:04:11.585Z,16.70
2022-10-17T00:06:38.626Z,16.70
2022-10-17T00:09:05.816Z,16.70
2022-10-17T00:11:32.822Z,16.60
2022-10-17T00:13:59.982Z,16.50
2022-10-17T00:16:34.199Z,16.50
2022-10-17T00:19:01.518Z,16.50
2022-10-17T00:21:28.741Z,16.40
2022-10-17T00:23:55.608Z,16.40
2022-10-17T00:26:22.523Z,16.30
2022-10-17T00:28:49.765Z,16.30
2022-10-17T00:31:19.887Z,16.30
2022-10-17T00:33:47.266Z,16.20
2022-10-17T00:36:15.407Z,16.20
2022-10-17T00:38:52.096Z,16.20
2022-10-17T00:41:19.830Z,16.30
2022-10-17T00:43:50.727Z,16.20
2022-10-17T00:46:18.119Z,16.20
2022-10-17T00:48:45.081Z,16.10
2022-10-17T00:51:12.033Z,16.10
2022-10-17T00:53:39.089Z,16.10
2022-10-17T00:56:06.444Z,16.00
2022-10-17T00:58:33.694Z,16.00
2022-10-17T01:01:00.902Z,16.00
2022-10-17T01:03:28.235Z,15.90
2022-10-17T01:05:55.390Z,15.90
2022-10-17T01:08:23.726Z,15.80
2022-10-17T01:10:51.022Z,15.90
2022-10-17T01:13:30.414Z,15.90
2022-10-17T01:16:00.786Z,15.90
2022-10-17T01:18:33.830Z,15.90
2022-10-17T01:21:00.998Z,15.80
2022-10-17T01:23:40.547Z,15.80
2022-10-17T01:26:10.569Z,15.80
2022-10-17T01:28:40.672Z,15.80
2022-10-17T01:31:17.117Z,15.80
2022-10-17T01:33:44.053Z,15.80
2022-10-17T01:36:10.975Z,15.80
2022-10-17T01:38:48.624Z,15.70
2022-10-17T01:41:17.590Z,15.60
2022-10-17T01:43:46.019Z,15.70
2022-10-17T01:46:36.351Z,15.70
2022-10-17T01:49:03.481Z,15.70
2022-10-17T01:51:52.163Z,15.60
2022-10-17T01:54:21.748Z,15.60
2022-10-17T01:56:48.817Z,15.50
2022-10-17T01:59:17.602Z,15.40
2022-10-17T02:01:45.080Z,15.30
2022-10-17T02:04:12.331Z,15.30
2022-10-17T02:06:39.268Z,15.30
2022-10-17T02:09:19.354Z,15.20
2022-10-17T02:11:59.472Z,15.30
2022-10-17T02:14:31.728Z,15.30
2022-10-17T02:17:06.241Z,15.30
2022-10-17T02:19:37.048Z,15.20
2022-10-17T02:22:17.550Z,15.20
2022-10-17T02:24:52.906Z,15.30
2022-10-17T02:27:38.252Z,15.30
2022-10-17T02:30:23.746Z,15.20
2022-10-17T02:32:54.071Z,15.20
2022-10-17T02:35:21.121Z,15.10
2022-10-17T02:37:49.922Z,15.00
2022-10-17T02:40:17.462Z,15.10
2022-10-17T02:42:45.100Z,15.00
2022-10-17T02:45:12.486Z,15.00
2022-10-17T02:47:42.494Z,14.90
2022-10-17T02:50:09.453Z,14.90
2022-10-17T02:52:51.311Z,14.80
2022-10-17T02:55:18.880Z,14.80
2022-10-17T02:57:53.210Z,14.80
2022-10-17T03:00:20.335Z,14.70
2022-10-17T03:02:48.521Z,14.70
2022-10-17T03:05:25.570Z,14.70
2022-10-17T03:07:52.647Z,14.70
2022-10-17T03:10:20.504Z,14.70
2022-10-17T03:12:47.680Z,14.70
2022-10-17T03:15:14.947Z,14.70
2022-10-17T03:17:41.989Z,14.70
2022-10-17T03:20:09.046Z,14.60
2022-10-17T03:22:36.053Z,14.60
2022-10-17T03:25:03.124Z,14.50
2022-10-17T03:27:30.539Z,14.50
2022-10-17T03:29:57.935Z,14.50
2022-10-17T03:32:24.950Z,14.60
2022-10-17T03:34:51.879Z,14.60
2022-10-17T03:37:19.197Z,14.60
2022-10-17T03:39:46.062Z,14.60
2022-10-17T03:42:13.067Z,14.60
2022-10-17T03:44:40.214Z,14.50
2022-10-17T03:47:09.244Z,14.40
2022-10-17T03:49:39.873Z,14.40
2022-10-17T03:52:11.527Z,14.30
2022-10-17T03:54:38.576Z,14.40
2022-10-17T03:57:05.598Z,14.40
2022-10-17T03:59:32.644Z,14.40
2022-10-17T04:01:59.501Z,14.30
2022-10-17T04:04:26.463Z,14.30
2022-10-17T04:06:53.381Z,14.30
2022-10-17T04:09:20.364Z,14.30
2022-10-17T04:11:47.291Z,14.30
2022-10-17T04:14:14.606Z,14.20
2022-10-17T04:16:41.469Z,14.10
2022-10-17T04:19:09.266Z,14.10
2022-10-17T04:21:36.424Z,14.10
2022-10-17T04:24:03.501Z,14.20
2022-10-17T04:26:30.429Z,14.20
2022-10-17T04:28:57.379Z,14.20
2022-10-17T04:31:24.381Z,14.20
2022-10-17T04:33:51.511Z,14.30
2022-10-17T04:36:18.834Z,14.20
2022-10-17T04:38:45.934Z,14.20
2022-10-17T04:41:15.670Z,14.20
2022-10-17T04:43:45.523Z,14.10
2022-10-17T04:46:15.549Z,14.10
2022-10-17T04:48:45.824Z,14.10
2022-10-17T04:51:13.857Z,14.00
2022-10-17T04:53:41.302Z,14.00
2022-10-17T04:56:18.286Z,14.00
2022-10-17T04:58:45.494Z,14.00
2022-10-17T05:01:13.378Z,14.00
2022-10-17T05:03:40.761Z,14.00
2022-10-17T05:06:08.547Z,14.10
2022-10-17T05:08:35.527Z,14.00
2022-10-17T05:11:02.700Z,14.00
2022-10-17T05:13:30.092Z,14.00
2022-10-17T05:16:01.094Z,14.00
2022-10-17T05:18:28.659Z,14.00
2022-10-17T05:20:55.908Z,14.00
2022-10-17T05:23:23.105Z,14.00
2022-10-17T05:25:54.456Z,14.00
2022-10-17T05:28:21.643Z,14.00
2022-10-17T05:30:48.569Z,14.00
2022-10-17T05:33:16.120Z,13.90
2022-10-17T05:35:43.013Z,13.90
2022-10-17T05:38:10.012Z,13.90
2022-10-17T05:40:38.701Z,13.90
2022-10-17T05:43:05.893Z,14.00
2022-10-17T05:45:32.811Z,14.10
2022-10-17T05:47:59.888Z,14.10
2022-10-17T05:50:26.870Z,14.20
2022-10-17T05:52:54.360Z,14.20
2022-10-17T05:55:21.477Z,14.20
2022-10-17T05:57:49.548Z,14.20
2022-10-17T06:00:16.515Z,14.30
2022-10-17T06:02:46.142Z,14.30
2022-10-17T06:05:13.550Z,14.40
2022-10-17T06:07:42.182Z,14.50
2022-10-17T06:10:09.352Z,14.50
2022-10-17T06:12:36.437Z,14.50
2022-10-17T06:15:03.398Z,14.50
2022-10-17T06:17:31.995Z,14.50
2022-10-17T06:20:02.260Z,14.50
2022-10-17T06:22:29.774Z,14.60
2022-10-17T06:24:57.103Z,14.80
2022-10-17T06:27:24.071Z,15.30
2022-10-17T06:29:51.517Z,16.10
2022-10-17T06:32:18.549Z,17.00
2022-10-17T06:34:45.621Z,17.80
2022-10-17T06:37:12.674Z,18.60
2022-10-17T06:39:39.921Z,19.40
2022-10-17T06:42:06.931Z,20.40
2022-10-17T06:44:34.077Z,21.30
2022-10-17T06:47:01.452Z,22.10
2022-10-17T06:49:28.637Z,22.90
2022-10-17T06:51:56.764Z,23.60
2022-10-17T06:54:23.749Z,24.20
2022-10-17T06:56:51.137Z,25.00
2022-10-17T06:59:21.031Z,25.50
2022-10-17T07:01:48.031Z,26.10
2022-10-17T07:04:15.002Z,26.60
2022-10-17T07:06:47.758Z,27.10
2022-10-17T07:09:25.452Z,27.70
2022-10-17T07:11:52.734Z,28.20
2022-10-17T07:14:20.271Z,28.70
2022-10-17T07:16:47.390Z,29.20
2022-10-17T07:19:14.366Z,29.60
2022-10-17T07:21:41.241Z,30.20
2022-10-17T07:24:08.440Z,30.80
2022-10-17T07:26:35.649Z,31.30
2022-10-17T07:29:03.352Z,31.60
2022-10-17T07:34:31.681Z,32.00
2022-10-17T07:36:58.733Z,32.00
2022-10-17T07:39:53.747Z,32.20
2022-10-17T07:42:20.764Z,32.20
2022-10-17T07:44:47.948Z,32.30
2022-10-17T07:47:15.042Z,32.50
2022-10-17T07:49:43.883Z,33.10
2022-10-17T07:52:14.112Z,33.80
2022-10-17T07:54:43.926Z,34.40
2022-10-17T07:57:15.880Z,34.80
2022-10-17T07:59:42.980Z,34.80
2022-10-17T08:02:13.042Z,34.90
2022-10-17T08:04:40.357Z,35.30
2022-10-17T08:07:20.963Z,35.80
2022-10-17T08:09:55.729Z,36.10
2022-10-17T08:12:22.835Z,36.60
2022-10-17T08:14:49.908Z,36.90
2022-10-17T08:17:16.802Z,37.20
2022-10-17T08:19:44.019Z,37.50
2022-10-17T08:22:11.529Z,37.80
2022-10-17T08:24:39.326Z,38.00
2022-10-17T08:27:11.692Z,38.30
2022-10-17T08:29:39.020Z,38.90
2022-10-17T08:32:09.582Z,38.90
2022-10-17T08:34:38.862Z,38.80
2022-10-17T08:37:05.826Z,39.10
2022-10-17T08:39:34.077Z,39.40
2022-10-17T08:42:14.250Z,39.70
2022-10-17T08:44:51.446Z,39.80
2022-10-17T08:47:30.304Z,40.00
2022-10-17T08:49:58.686Z,40.10
2022-10-17T08:52:25.631Z,39.40
2022-10-17T08:54:52.912Z,39.40
2022-10-17T08:57:20.778Z,39.60
2022-10-17T08:59:50.710Z,40.30
2022-10-17T09:02:26.987Z,40.70
2022-10-17T09:05:12.605Z,41.30
2022-10-17T09:07:50.469Z,41.50
2022-10-17T09:10:23.912Z,41.50
2022-10-17T09:12:57.753Z,41.30
2022-10-17T09:15:37.119Z,41.20
2022-10-17T09:18:10.299Z,41.70
2022-10-17T09:20:58.235Z,42.30
2022-10-17T09:23:26.498Z,42.80
2022-10-17T09:25:55.749Z,43.10
2022-10-17T09:28:41.761Z,43.40
2022-10-17T09:31:13.086Z,43.70
2022-10-17T09:33:56.048Z,43.80
2022-10-17T09:36:36.365Z,44.00
2022-10-17T09:39:12.537Z,44.30
2022-10-17T09:41:45.954Z,44.40
2022-10-17T09:44:19.076Z,44.90
2022-10-17T09:46:51.840Z,45.10
2022-10-17T09:49:19.349Z,45.40
2022-10-17T09:51:46.585Z,45.60
2022-10-17T09:54:23.953Z,45.70
2022-10-17T09:57:11.255Z,46.00
2022-10-17T09:59:42.856Z,46.00
2022-10-17T10:02:09.931Z,46.30
2022-10-17T10:04:59.780Z,46.40
2022-10-17T10:07:28.955Z,45.90
2022-10-17T10:09:56.636Z,46.10
2022-10-17T10:12:41.474Z,46.50
2022-10-17T10:15:27.298Z,46.90
2022-10-17T10:17:54.676Z,47.30
2022-10-17T10:20:35.327Z,47.70
2022-10-17T10:23:11.674Z,47.90
2022-10-17T10:25:38.710Z,48.20
2022-10-17T10:28:10.370Z,48.20
2022-10-17T10:30:39.189Z,48.30
2022-10-17T10:33:10.952Z,48.50
2022-10-17T10:35:38.120Z,48.30
2022-10-17T10:38:08.999Z,48.10
2022-10-17T10:40:44.956Z,48.20
2022-10-17T10:43:20.523Z,48.60
2022-10-17T10:45:48.804Z,48.80
2022-10-17T10:48:23.525Z,48.90
2022-10-17T10:50:59.620Z,49.00
2022-10-17T10:53:35.734Z,49.30
2022-10-17T10:56:02.874Z,49.10
2022-10-17T10:58:37.740Z,48.90
2022-10-17T11:01:07.386Z,48.90
2022-10-17T11:03:36.515Z,49.00
2022-10-17T11:06:11.663Z,49.00
2022-10-17T11:09:01.753Z,49.10
2022-10-17T11:11:30.229Z,49.10
2022-10-17T11:14:03.059Z,49.20
2022-10-17T11:16:49.566Z,49.40
2022-10-17T11:19:22.425Z,49.80
2022-10-17T11:21:57.039Z,50.00
2022-10-17T11:24:24.833Z,50.20
2022-10-17T11:27:01.707Z,50.20
2022-10-17T11:29:29.558Z,50.20
2022-10-17T11:32:17.480Z,49.60
2022-10-17T11:34:46.057Z,48.40
2022-10-17T11:37:15.793Z,47.80
2022-10-17T11:39:51.522Z,47.50
2022-10-17T11:42:20.647Z,47.40
2022-10-17T11:44:47.596Z,47.40
2022-10-17T11:47:33.431Z,47.80
2022-10-17T11:52:57.356Z,46.60
2022-10-17T11:55:25.219Z,46.20
2022-10-17T11:57:57.031Z,46.00
2022-10-17T12:00:26.928Z,46.20
2022-10-17T12:02:57.681Z,46.50
2022-10-17T12:05:24.686Z,47.10
2022-10-17T12:07:56.596Z,47.60
2022-10-17T12:10:42.501Z,48.30
2022-10-17T12:13:27.828Z,48.70
2022-10-17T12:15:55.251Z,48.70
2022-10-17T12:18:23.902Z,49.00
2022-10-17T12:21:00.176Z,49.20
2022-10-17T12:23:31.023Z,49.20
2022-10-17T12:26:01.664Z,49.30
2022-10-17T12:28:32.265Z,49.30
2022-10-17T12:31:06.759Z,49.30
2022-10-17T12:33:45.959Z,49.10
2022-10-17T12:36:18.954Z,49.10
2022-10-17T12:38:50.096Z,49.00
2022-10-17T12:41:17.502Z,48.70
2022-10-17T12:43:47.080Z,48.70
2022-10-17T12:46:15.102Z,48.70
2022-10-17T12:48:43.376Z,48.70
2022-10-17T12:54:02.461Z,47.80
2022-10-17T12:56:39.956Z,47.80
2022-10-17T12:59:25.876Z,47.60
2022-10-17T13:01:54.866Z,47.60
2022-10-17T13:04:21.882Z,47.30
2022-10-17T13:06:55.243Z,47.10
2022-10-17T13:09:26.329Z,47.00
2022-10-17T13:11:53.302Z,46.90
2022-10-17T13:14:46.704Z,46.40
2022-10-17T13:17:43.826Z,46.10
2022-10-17T13:20:37.356Z,45.70
2022-10-17T13:23:04.639Z,45.50
2022-10-17T13:25:37.629Z,45.50
2022-10-17T13:28:15.983Z,45.60
2022-10-17T13:30:54.725Z,45.50
2022-10-17T13:33:55.979Z,45.30
2022-10-17T13:36:23.177Z,45.20
2022-10-17T13:39:16.931Z,45.00
2022-10-17T13:41:44.243Z,44.70
2022-10-17T13:44:26.348Z,44.50
2022-10-17T13:46:56.786Z,44.30
2022-10-17T13:49:28.048Z,44.10
2022-10-17T13:51:55.435Z,43.80
2022-10-17T13:54:36.006Z,43.80
2022-10-17T13:57:03.393Z,43.60
2022-10-17T13:59:40.450Z,43.40
2022-10-17T14:02:12.865Z,43.10
2022-10-17T14:05:11.520Z,42.90
2022-10-17T14:10:37.287Z,42.10
2022-10-17T14:13:05.066Z,41.90
2022-10-17T14:15:36.396Z,41.40
2022-10-17T14:18:17.948Z,40.90
2022-10-17T14:21:30.406Z,40.60
2022-10-17T14:23:41.047Z,40.50
2022-10-17T14:26:07.964Z,40.70
2022-10-17T14:28:35.491Z,40.60
2022-10-17T14:31:52.083Z,40.50
2022-10-17T14:34:22.923Z,40.20
2022-10-17T14:36:53.103Z,39.80
2022-10-17T14:39:25.045Z,39.30
2022-10-17T14:42:03.391Z,38.60
2022-10-17T14:44:32.373Z,37.60
2022-10-17T14:47:01.577Z,36.30
2022-10-17T14:49:40.633Z,35.30
2022-10-17T14:52:19.893Z,34.30
2022-10-17T14:54:55.306Z,33.40
2022-10-17T14:57:27.015Z,32.50
2022-10-17T14:59:56.001Z,31.90
2022-10-17T15:02:29.891Z,31.30
2022-10-17T15:05:03.917Z,30.70
2022-10-17T15:07:31.217Z,30.40
2022-10-17T15:09:59.780Z,30.20
2022-10-17T15:12:31.704Z,30.10
2022-10-17T15:15:02.203Z,30.10
2022-10-17T15:17:35.433Z,29.90
2022-10-17T15:20:20.361Z,29.80
2022-10-17T15:22:51.562Z,29.70
2022-10-17T15:25:21.201Z,29.50
2022-10-17T15:27:52.394Z,29.40
2022-10-17T15:30:39.694Z,29.30
2022-10-17T15:33:06.600Z,29.00
2022-10-17T15:36:00.516Z,28.90
2022-10-17T15:38:28.583Z,28.70
2022-10-17T15:41:06.350Z,28.50
2022-10-17T15:43:43.124Z,28.40
2022-10-17T15:46:14.265Z,28.30
2022-10-17T15:48:41.645Z,28.20
2022-10-17T15:51:11.349Z,28.00
2022-10-17T15:53:43.602Z,27.90
2022-10-17T15:56:22.746Z,27.80
2022-10-17T15:58:49.668Z,27.70
2022-10-17T16:01:20.820Z,27.50
2022-10-17T16:03:50.498Z,27.40
2022-10-17T16:06:18.728Z,27.20
2022-10-17T16:08:49.017Z,27.10
2022-10-17T16:11:25.735Z,27.00
2022-10-17T16:13:58.693Z,26.80
2022-10-17T16:16:25.776Z,26.60
2022-10-17T16:18:52.795Z,26.50
2022-10-17T16:21:20.221Z,26.30
2022-10-17T16:23:47.236Z,26.20
2022-10-17T16:26:16.175Z,26.10
2022-10-17T16:28:46.176Z,26.00
2022-10-17T16:31:26.542Z,25.90
2022-10-17T16:33:54.225Z,25.70
2022-10-17T16:36:21.227Z,25.60
2022-10-17T16:38:48.193Z,25.40
2022-10-17T16:41:44.873Z,25.30
2022-10-17T16:44:14.701Z,25.10
2022-10-17T16:46:47.982Z,25.00
2022-10-17T16:49:17.113Z,25.00
2022-10-17T16:51:44.362Z,25.00
2022-10-17T16:54:11.579Z,25.00
2022-10-17T16:56:45.979Z,25.00
2022-10-17T16:59:15.305Z,24.90
2022-10-17T17:01:42.306Z,25.00
2022-10-17T17:04:09.717Z,24.90
2022-10-17T17:06:36.691Z,24.80
2022-10-17T17:09:03.772Z,24.80
2022-10-17T17:11:31.879Z,24.70
2022-10-17T17:13:59.001Z,24.70
2022-10-17T17:16:26.898Z,24.50
2022-10-17T17:18:54.577Z,24.40
2022-10-17T17:21:21.586Z,24.20
2022-10-17T17:23:48.662Z,24.10
2022-10-17T17:26:21.250Z,24.00
2022-10-17T17:28:54.330Z,24.00
2022-10-17T17:31:24.274Z,23.90
2022-10-17T17:33:51.465Z,23.80
2022-10-17T17:36:20.330Z,23.70
2022-10-17T17:38:47.687Z,23.70
2022-10-17T17:41:15.086Z,23.60
2022-10-17T17:43:42.387Z,23.50
2022-10-17T17:46:09.528Z,23.40
2022-10-17T17:48:40.025Z,23.30
2022-10-17T17:51:07.594Z,23.30
2022-10-17T17:53:34.941Z,23.20
2022-10-17T17:56:05.971Z,23.10
2022-10-17T17:58:33.244Z,23.00
2022-10-17T18:01:00.461Z,22.90
2022-10-17T18:03:27.544Z,22.90
2022-10-17T18:05:55.015Z,22.80
2022-10-17T18:08:24.447Z,22.70
2022-10-17T18:10:54.885Z,22.70
2022-10-17T18:13:22.194Z,22.60
2022-10-17T18:15:52.197Z,22.50
2022-10-17T18:18:19.449Z,22.40
2022-10-17T18:20:46.364Z,22.30
2022-10-17T18:23:13.329Z,22.20
2022-10-17T18:25:40.493Z,22.20
2022-10-17T18:28:09.221Z,22.20
2022-10-17T18:30:39.191Z,22.20
2022-10-17T18:33:06.463Z,22.10
2022-10-17T18:35:34.456Z,22.10
2022-10-17T18:38:01.637Z,22.00
2022-10-17T18:40:28.642Z,21.90
2022-10-17T18:42:55.702Z,21.70
2022-10-17T18:45:22.636Z,21.60
2022-10-17T18:47:52.761Z,21.60
2022-10-17T18:50:20.189Z,21.50
2022-10-17T18:52:48.126Z,21.40
2022-10-17T18:55:16.592Z,21.30
2022-10-17T18:57:43.671Z,21.20
2022-10-17T19:00:10.998Z,21.00
2022-10-17T19:02:39.330Z,20.90
2022-10-17T19:05:06.375Z,20.80
2022-10-17T19:07:33.922Z,20.70
2022-10-17T19:10:01.002Z,20.70
2022-10-17T19:12:27.896Z,20.60
2022-10-17T19:14:59.143Z,20.50
2022-10-17T19:17:26.088Z,20.40
2022-10-17T19:19:53.679Z,20.30
2022-10-17T19:22:21.247Z,20.30
2022-10-17T19:24:48.247Z,20.10
2022-10-17T19:27:15.244Z,20.00
2022-10-17T19:29:47.062Z,19.90
2022-10-17T19:32:19.232Z,19.90
2022-10-17T19:34:49.896Z,19.90
2022-10-17T19:37:17.267Z,19.90
2022-10-17T19:39:44.279Z,19.80
2022-10-17T19:42:11.836Z,19.90
2022-10-17T19:45:13.516Z,19.80
2022-10-17T19:47:39.719Z,19.80
2022-10-17T19:50:07.217Z,19.80
2022-10-17T19:52:34.427Z,19.70
2022-10-17T19:55:01.536Z,19.70
2022-10-17T19:57:31.100Z,19.60
2022-10-17T19:59:58.695Z,19.60
2022-10-17T20:02:25.841Z,19.50
2022-10-17T20:05:06.364Z,19.50
2022-10-17T20:07:40.157Z,19.40
2022-10-17T20:10:07.232Z,19.30
2022-10-17T20:12:34.421Z,19.20
2022-10-17T20:15:02.431Z,19.20
2022-10-17T20:17:29.419Z,19.20
2022-10-17T20:19:56.522Z,19.10
2022-10-17T20:22:23.447Z,19.00
2022-10-17T20:24:50.538Z,18.90
2022-10-17T20:27:18.256Z,18.90
2022-10-17T20:29:45.255Z,18.80
2022-10-17T20:32:12.218Z,18.70
2022-10-17T20:34:39.687Z,18.70
2022-10-17T20:37:07.088Z,18.70
2022-10-17T20:39:34.236Z,18.60
2022-10-17T20:42:02.571Z,18.60
2022-10-17T20:44:33.925Z,18.60
2022-10-17T20:47:02.541Z,18.50
2022-10-17T20:49:30.225Z,18.50
2022-10-17T20:51:57.248Z,18.50
2022-10-17T20:54:24.146Z,18.40
2022-10-17T20:56:51.298Z,18.40
2022-10-17T20:59:18.313Z,18.40
2022-10-17T21:01:45.531Z,18.30
2022-10-17T21:04:45.302Z,18.30
2022-10-17T21:06:59.564Z,18.20
2022-10-17T21:09:26.558Z,18.20
2022-10-17T21:11:56.633Z,18.30
2022-10-17T21:14:24.070Z,18.20
2022-10-17T21:16:53.392Z,18.10
2022-10-17T21:19:21.969Z,18.10
2022-10-17T21:21:49.227Z,18.00
2022-10-17T21:24:19.404Z,17.90
2022-10-17T21:26:47.087Z,18.00
2022-10-17T21:29:14.031Z,17.90
2022-10-17T21:31:45.724Z,17.80
2022-10-17T21:34:13.551Z,17.70
2022-10-17T21:36:40.720Z,17.60
2022-10-17T21:41:40.532Z,17.50
2022-10-17T21:44:10.601Z,17.50
2022-10-17T21:46:37.792Z,17.50
2022-10-17T21:49:04.840Z,17.40
2022-10-17T21:51:31.741Z,17.40
2022-10-17T21:53:58.739Z,17.40
2022-10-17T21:56:28.848Z,17.40
2022-10-17T21:58:56.129Z,17.30
2022-10-17T22:01:24.466Z,17.30
2022-10-17T22:03:52.453Z,17.30
2022-10-17T22:09:09.231Z,17.10
2022-10-17T22:11:36.541Z,17.10
2022-10-17T22:14:13.614Z,17.00
2022-10-17T22:16:40.559Z,17.10
2022-10-17T22:19:07.780Z,17.00
2022-10-17T22:21:35.375Z,16.90
2022-10-17T22:24:03.257Z,16.80
2022-10-17T22:26:30.855Z,16.80
2022-10-17T22:28:58.069Z,16.70
2022-10-17T22:31:25.177Z,16.60
2022-10-17T22:33:52.607Z,16.50
2022-10-17T22:36:26.473Z,16.50
2022-10-17T22:38:53.325Z,16.50
2022-10-17T22:41:20.419Z,16.40
2022-10-17T22:43:47.355Z,16.40
2022-10-17T22:46:14.618Z,16.40
2022-10-17T22:48:41.770Z,16.30
2022-10-17T22:51:08.661Z,16.30
2022-10-17T22:53:37.495Z,16.40
2022-10-17T22:56:08.327Z,16.30
2022-10-17T22:58:35.744Z,16.30
2022-10-17T23:01:03.063Z,16.30
2022-10-17T23:03:30.028Z,16.20
2022-10-17T23:05:58.311Z,16.30
2022-10-17T23:08:25.349Z,16.20
2022-10-17T23:10:52.281Z,16.10
2022-10-17T23:13:20.045Z,16.10
2022-10-17T23:15:46.927Z,16.00
2022-10-17T23:18:13.816Z,15.90
2022-10-17T23:20:40.697Z,15.70
2022-10-17T23:23:07.642Z,15.70
2022-10-17T23:25:34.706Z,15.60
2022-10-17T23:28:01.792Z,15.60
2022-10-17T23:30:28.868Z,15.60
2022-10-17T23:32:55.723Z,15.50
2022-10-17T23:35:22.900Z,15.60
2022-10-17T23:37:49.780Z,15.60
2022-10-17T23:40:16.721Z,15.50
2022-10-17T23:42:44.028Z,15.60
2022-10-17T23:45:11.175Z,15.60
2022-10-17T23:47:38.183Z,15.50
2022-10-17T23:50:05.757Z,15.40
2022-10-17T23:52:32.882Z,15.30
2022-10-17T23:54:59.978Z,15.30
2022-10-17T23:57:26.931Z,15.30
2022-10-17T23:59:53.873Z,15.20
